< < Back
Terminal Aerodrome Forecast


Current Version              Previous Versions:   1  2  3  4  5  6  7  8  9  

Terminal Aerodrome Forecast

178
FTUS42 KMLB 272347 RRA
TAFDAB
TAF
KDAB 272347Z 2800/2824 27013KT P6SM FEW015 BKN040 OVC200
     FM280200 29011G19KT P6SM SCT035 BKN250
     FM280800 32011KT P6SM SCT250
     FM281800 31012G18KT P6SM SKC
     FM282200 30011KT P6SM FEW250=

Latest METAR

890
SAUS80 KWBC 290100
MTRDAB
METAR KDAB 290053Z 00000KT 10SM FEW250 14/04 A3018 RMK AO2 SLP217
T01390039


USA.gov is the U.S. government's official web portal to all federal, state and local government web resources and services.